sensor_id;sensor_type;location;lat;lon;timestamp;P1;durP1;ratioP1;P2;durP2;ratioP2
51987;SDS011;38003;52.012;4.346;2023-05-02T00:01:29;14.00;;;12.00;;
51987;SDS011;38003;52.012;4.346;2023-05-02T00:03:57;14.27;;;11.57;;
51987;SDS011;38003;52.012;4.346;2023-05-02T00:06:25;11.63;;;8.77;;
51987;SDS011;38003;52.012;4.346;2023-05-02T00:08:54;11.40;;;7.50;;
51987;SDS011;38003;52.012;4.346;2023-05-02T00:11:23;10.80;;;6.70;;
51987;SDS011;38003;52.012;4.346;2023-05-02T00:13:51;7.30;;;6.20;;
51987;SDS011;38003;52.012;4.346;2023-05-02T00:16:19;7.87;;;5.60;;
51987;SDS011;38003;52.012;4.346;2023-05-02T00:18:48;8.13;;;5.70;;
51987;SDS011;38003;52.012;4.346;2023-05-02T00:21:16;8.63;;;5.03;;
51987;SDS011;38003;52.012;4.346;2023-05-02T00:23:44;7.37;;;5.07;;
51987;SDS011;38003;52.012;4.346;2023-05-02T00:26:12;7.63;;;5.50;;
51987;SDS011;38003;52.012;4.346;2023-05-02T00:28:42;7.43;;;4.90;;
51987;SDS011;38003;52.012;4.346;2023-05-02T00:31:10;10.93;;;5.00;;
51987;SDS011;38003;52.012;4.346;2023-05-02T00:33:38;7.53;;;4.90;;
51987;SDS011;38003;52.012;4.346;2023-05-02T00:36:11;9.00;;;5.50;;
51987;SDS011;38003;52.012;4.346;2023-05-02T00:38:40;6.83;;;5.40;;
51987;SDS011;38003;52.012;4.346;2023-05-02T00:41:08;7.57;;;4.70;;
51987;SDS011;38003;52.012;4.346;2023-05-02T00:43:36;10.00;;;4.47;;
51987;SDS011;38003;52.012;4.346;2023-05-02T00:46:07;6.97;;;3.70;;
51987;SDS011;38003;52.012;4.346;2023-05-02T00:48:37;4.10;;;3.00;;
51987;SDS011;38003;52.012;4.346;2023-05-02T00:51:05;6.27;;;3.13;;
51987;SDS011;38003;52.012;4.346;2023-05-02T00:53:37;5.80;;;2.77;;
51987;SDS011;38003;52.012;4.346;2023-05-02T00:56:05;5.93;;;3.20;;
51987;SDS011;38003;52.012;4.346;2023-05-02T00:58:34;5.10;;;3.17;;
51987;SDS011;38003;52.012;4.346;2023-05-02T01:01:07;5.33;;;3.27;;
51987;SDS011;38003;52.012;4.346;2023-05-02T01:03:40;9.00;;;4.10;;
51987;SDS011;38003;52.012;4.346;2023-05-02T01:06:18;9.00;;;3.80;;
51987;SDS011;38003;52.012;4.346;2023-05-02T01:08:51;8.73;;;4.33;;
51987;SDS011;38003;52.012;4.346;2023-05-02T01:11:23;14.53;;;4.40;;
51987;SDS011;38003;52.012;4.346;2023-05-02T01:13:55;8.73;;;3.53;;
51987;SDS011;38003;52.012;4.346;2023-05-02T01:16:24;9.50;;;3.23;;
51987;SDS011;38003;52.012;4.346;2023-05-02T01:18:54;10.47;;;3.20;;
51987;SDS011;38003;52.012;4.346;2023-05-02T01:21:23;8.07;;;3.17;;
51987;SDS011;38003;52.012;4.346;2023-05-02T01:23:52;9.80;;;3.33;;
51987;SDS011;38003;52.012;4.346;2023-05-02T01:26:26;7.57;;;2.50;;
51987;SDS011;38003;52.012;4.346;2023-05-02T01:28:58;7.13;;;2.47;;
51987;SDS011;38003;52.012;4.346;2023-05-02T01:31:28;9.33;;;2.70;;
51987;SDS011;38003;52.012;4.346;2023-05-02T01:33:57;5.60;;;2.60;;
51987;SDS011;38003;52.012;4.346;2023-05-02T01:36:28;8.93;;;2.80;;
51987;SDS011;38003;52.012;4.346;2023-05-02T01:38:58;7.87;;;2.83;;
51987;SDS011;38003;52.012;4.346;2023-05-02T01:41:28;5.90;;;2.40;;
51987;SDS011;38003;52.012;4.346;2023-05-02T01:43:57;11.07;;;3.13;;
51987;SDS011;38003;52.012;4.346;2023-05-02T01:46:29;10.47;;;2.73;;
51987;SDS011;38003;52.012;4.346;2023-05-02T01:48:59;11.53;;;3.00;;
51987;SDS011;38003;52.012;4.346;2023-05-02T01:51:29;12.27;;;3.30;;
51987;SDS011;38003;52.012;4.346;2023-05-02T01:54:00;8.60;;;3.07;;
51987;SDS011;38003;52.012;4.346;2023-05-02T01:56:29;9.93;;;3.00;;
51987;SDS011;38003;52.012;4.346;2023-05-02T01:58:58;7.67;;;2.67;;
51987;SDS011;38003;52.012;4.346;2023-05-02T02:01:28;7.10;;;2.87;;
51987;SDS011;38003;52.012;4.346;2023-05-02T02:03:57;7.70;;;2.70;;
51987;SDS011;38003;52.012;4.346;2023-05-02T02:06:26;6.77;;;2.90;;
51987;SDS011;38003;52.012;4.346;2023-05-02T02:08:55;7.50;;;2.40;;
51987;SDS011;38003;52.012;4.346;2023-05-02T02:11:24;8.87;;;2.60;;
51987;SDS011;38003;52.012;4.346;2023-05-02T02:13:54;10.23;;;3.00;;
51987;SDS011;38003;52.012;4.346;2023-05-02T02:16:24;9.27;;;3.00;;
51987;SDS011;38003;52.012;4.346;2023-05-02T02:18:57;8.73;;;3.07;;
51987;SDS011;38003;52.012;4.346;2023-05-02T02:21:26;11.97;;;2.80;;
51987;SDS011;38003;52.012;4.346;2023-05-02T02:23:54;12.17;;;3.80;;
51987;SDS011;38003;52.012;4.346;2023-05-02T02:26:24;6.60;;;2.37;;
51987;SDS011;38003;52.012;4.346;2023-05-02T02:28:52;9.00;;;3.03;;
51987;SDS011;38003;52.012;4.346;2023-05-02T02:31:20;6.17;;;2.07;;
51987;SDS011;38003;52.012;4.346;2023-05-02T02:33:50;4.77;;;2.07;;
51987;SDS011;38003;52.012;4.346;2023-05-02T02:36:24;6.90;;;2.00;;
51987;SDS011;38003;52.012;4.346;2023-05-02T02:39:00;6.80;;;2.10;;
51987;SDS011;38003;52.012;4.346;2023-05-02T02:41:31;10.27;;;2.33;;
51987;SDS011;38003;52.012;4.346;2023-05-02T02:44:03;7.50;;;2.27;;
51987;SDS011;38003;52.012;4.346;2023-05-02T02:46:33;10.53;;;2.20;;
51987;SDS011;38003;52.012;4.346;2023-05-02T02:49:09;6.03;;;1.90;;
51987;SDS011;38003;52.012;4.346;2023-05-02T02:51:43;7.70;;;1.80;;
51987;SDS011;38003;52.012;4.346;2023-05-02T02:54:12;9.17;;;1.87;;
51987;SDS011;38003;52.012;4.346;2023-05-02T02:56:54;8.43;;;1.80;;
51987;SDS011;38003;52.012;4.346;2023-05-02T02:59:26;8.03;;;2.73;;
51987;SDS011;38003;52.012;4.346;2023-05-02T03:01:58;6.63;;;1.60;;
51987;SDS011;38003;52.012;4.346;2023-05-02T03:04:28;5.63;;;1.83;;
51987;SDS011;38003;52.012;4.346;2023-05-02T03:06:59;8.73;;;1.70;;
51987;SDS011;38003;52.012;4.346;2023-05-02T03:09:27;6.03;;;1.40;;
51987;SDS011;38003;52.012;4.346;2023-05-02T03:11:58;4.93;;;1.40;;
51987;SDS011;38003;52.012;4.346;2023-05-02T03:14:27;8.00;;;1.93;;
51987;SDS011;38003;52.012;4.346;2023-05-02T03:16:55;6.40;;;1.77;;
51987;SDS011;38003;52.012;4.346;2023-05-02T03:19:23;7.13;;;1.73;;
51987;SDS011;38003;52.012;4.346;2023-05-02T03:21:52;4.40;;;1.30;;
51987;SDS011;38003;52.012;4.346;2023-05-02T03:24:22;4.80;;;1.50;;
51987;SDS011;38003;52.012;4.346;2023-05-02T03:26:50;7.43;;;1.63;;
51987;SDS011;38003;52.012;4.346;2023-05-02T03:29:21;5.83;;;2.00;;
51987;SDS011;38003;52.012;4.346;2023-05-02T03:31:49;4.93;;;1.40;;
51987;SDS011;38003;52.012;4.346;2023-05-02T03:34:18;5.10;;;1.57;;
51987;SDS011;38003;52.012;4.346;2023-05-02T03:36:47;5.80;;;1.50;;
51987;SDS011;38003;52.012;4.346;2023-05-02T03:39:15;7.03;;;1.80;;
51987;SDS011;38003;52.012;4.346;2023-05-02T03:41:45;7.20;;;1.70;;
51987;SDS011;38003;52.012;4.346;2023-05-02T03:44:13;6.60;;;1.80;;
51987;SDS011;38003;52.012;4.346;2023-05-02T03:46:41;4.80;;;1.87;;
51987;SDS011;38003;52.012;4.346;2023-05-02T03:49:09;6.20;;;1.90;;
51987;SDS011;38003;52.012;4.346;2023-05-02T03:51:38;6.90;;;1.70;;
51987;SDS011;38003;52.012;4.346;2023-05-02T03:54:07;7.93;;;1.70;;
51987;SDS011;38003;52.012;4.346;2023-05-02T03:56:35;5.37;;;1.50;;
51987;SDS011;38003;52.012;4.346;2023-05-02T03:59:09;7.50;;;1.80;;
51987;SDS011;38003;52.012;4.346;2023-05-02T04:01:37;5.27;;;1.63;;
51987;SDS011;38003;52.012;4.346;2023-05-02T04:04:05;7.73;;;1.80;;
51987;SDS011;38003;52.012;4.346;2023-05-02T04:06:33;4.53;;;1.47;;
51987;SDS011;38003;52.012;4.346;2023-05-02T04:09:03;6.33;;;1.57;;
51987;SDS011;38003;52.012;4.346;2023-05-02T04:11:31;6.43;;;1.77;;
51987;SDS011;38003;52.012;4.346;2023-05-02T04:13:59;4.30;;;1.33;;
51987;SDS011;38003;52.012;4.346;2023-05-02T04:16:29;6.67;;;1.87;;
51987;SDS011;38003;52.012;4.346;2023-05-02T04:18:57;7.97;;;1.57;;
51987;SDS011;38003;52.012;4.346;2023-05-02T04:21:26;4.00;;;1.57;;
51987;SDS011;38003;52.012;4.346;2023-05-02T04:23:54;7.87;;;2.00;;
51987;SDS011;38003;52.012;4.346;2023-05-02T04:26:22;8.60;;;2.50;;
51987;SDS011;38003;52.012;4.346;2023-05-02T04:28:50;10.47;;;2.10;;
51987;SDS011;38003;52.012;4.346;2023-05-02T04:31:19;7.90;;;1.90;;
51987;SDS011;38003;52.012;4.346;2023-05-02T04:33:48;11.70;;;1.90;;
51987;SDS011;38003;52.012;4.346;2023-05-02T04:36:16;10.50;;;2.30;;
51987;SDS011;38003;52.012;4.346;2023-05-02T04:38:45;9.17;;;2.20;;
51987;SDS011;38003;52.012;4.346;2023-05-02T04:41:13;8.37;;;2.00;;
51987;SDS011;38003;52.012;4.346;2023-05-02T04:43:42;7.83;;;1.90;;
51987;SDS011;38003;52.012;4.346;2023-05-02T04:46:11;8.47;;;2.40;;
51987;SDS011;38003;52.012;4.346;2023-05-02T04:48:39;8.77;;;2.30;;
51987;SDS011;38003;52.012;4.346;2023-05-02T04:51:09;10.20;;;2.47;;
51987;SDS011;38003;52.012;4.346;2023-05-02T04:53:40;8.87;;;2.10;;
51987;SDS011;38003;52.012;4.346;2023-05-02T04:56:08;10.40;;;2.57;;
51987;SDS011;38003;52.012;4.346;2023-05-02T04:58:36;7.73;;;2.33;;
51987;SDS011;38003;52.012;4.346;2023-05-02T05:01:04;9.13;;;2.37;;
51987;SDS011;38003;52.012;4.346;2023-05-02T05:03:32;10.67;;;2.47;;
51987;SDS011;38003;52.012;4.346;2023-05-02T05:06:01;8.67;;;2.50;;
51987;SDS011;38003;52.012;4.346;2023-05-02T05:08:30;11.70;;;3.03;;
51987;SDS011;38003;52.012;4.346;2023-05-02T05:10:59;12.77;;;2.53;;
51987;SDS011;38003;52.012;4.346;2023-05-02T05:13:27;12.97;;;3.27;;
51987;SDS011;38003;52.012;4.346;2023-05-02T05:15:55;10.20;;;2.70;;
51987;SDS011;38003;52.012;4.346;2023-05-02T05:18:23;14.43;;;2.90;;
51987;SDS011;38003;52.012;4.346;2023-05-02T05:20:52;8.87;;;2.80;;
51987;SDS011;38003;52.012;4.346;2023-05-02T05:23:20;12.17;;;3.10;;
51987;SDS011;38003;52.012;4.346;2023-05-02T05:25:49;12.57;;;2.90;;
51987;SDS011;38003;52.012;4.346;2023-05-02T05:28:18;8.80;;;2.70;;
51987;SDS011;38003;52.012;4.346;2023-05-02T05:30:46;9.00;;;2.80;;
51987;SDS011;38003;52.012;4.346;2023-05-02T05:33:14;9.50;;;2.60;;
51987;SDS011;38003;52.012;4.346;2023-05-02T05:35:42;8.50;;;3.23;;
51987;SDS011;38003;52.012;4.346;2023-05-02T05:38:10;12.87;;;3.13;;
51987;SDS011;38003;52.012;4.346;2023-05-02T05:40:39;17.00;;;2.93;;
51987;SDS011;38003;52.012;4.346;2023-05-02T05:43:08;8.97;;;2.90;;
51987;SDS011;38003;52.012;4.346;2023-05-02T05:45:36;13.23;;;3.07;;
51987;SDS011;38003;52.012;4.346;2023-05-02T05:48:05;12.73;;;2.20;;
51987;SDS011;38003;52.012;4.346;2023-05-02T05:50:33;9.20;;;2.77;;
51987;SDS011;38003;52.012;4.346;2023-05-02T05:53:01;7.67;;;2.63;;
51987;SDS011;38003;52.012;4.346;2023-05-02T05:55:30;13.10;;;3.07;;
51987;SDS011;38003;52.012;4.346;2023-05-02T05:57:58;9.93;;;2.47;;
51987;SDS011;38003;52.012;4.346;2023-05-02T06:00:28;10.87;;;2.80;;
51987;SDS011;38003;52.012;4.346;2023-05-02T06:02:57;5.67;;;2.10;;
51987;SDS011;38003;52.012;4.346;2023-05-02T06:05:25;15.07;;;2.70;;
51987;SDS011;38003;52.012;4.346;2023-05-02T06:07:53;12.27;;;2.73;;
51987;SDS011;38003;52.012;4.346;2023-05-02T06:10:22;10.07;;;2.20;;
51987;SDS011;38003;52.012;4.346;2023-05-02T06:12:50;8.43;;;2.23;;
51987;SDS011;38003;52.012;4.346;2023-05-02T06:15:18;9.43;;;3.10;;
51987;SDS011;38003;52.012;4.346;2023-05-02T06:17:49;7.50;;;2.10;;
51987;SDS011;38003;52.012;4.346;2023-05-02T06:20:17;9.90;;;2.20;;
51987;SDS011;38003;52.012;4.346;2023-05-02T06:22:45;12.33;;;2.80;;
51987;SDS011;38003;52.012;4.346;2023-05-02T06:25:13;10.93;;;2.70;;
51987;SDS011;38003;52.012;4.346;2023-05-02T06:27:42;9.87;;;1.93;;
51987;SDS011;38003;52.012;4.346;2023-05-02T06:30:10;7.23;;;2.30;;
51987;SDS011;38003;52.012;4.346;2023-05-02T06:32:38;12.37;;;2.63;;
51987;SDS011;38003;52.012;4.346;2023-05-02T06:35:10;6.57;;;1.83;;
51987;SDS011;38003;52.012;4.346;2023-05-02T06:37:38;9.60;;;2.20;;
51987;SDS011;38003;52.012;4.346;2023-05-02T06:40:07;10.80;;;2.63;;
51987;SDS011;38003;52.012;4.346;2023-05-02T06:42:35;5.27;;;2.13;;
51987;SDS011;38003;52.012;4.346;2023-05-02T06:45:04;5.30;;;1.80;;
51987;SDS011;38003;52.012;4.346;2023-05-02T06:47:32;9.90;;;2.20;;
51987;SDS011;38003;52.012;4.346;2023-05-02T06:50:01;8.60;;;2.13;;
51987;SDS011;38003;52.012;4.346;2023-05-02T06:52:30;8.60;;;2.80;;
51987;SDS011;38003;52.012;4.346;2023-05-02T06:54:58;9.30;;;1.93;;
51987;SDS011;38003;52.012;4.346;2023-05-02T06:57:27;7.57;;;2.00;;
51987;SDS011;38003;52.012;4.346;2023-05-02T06:59:55;7.83;;;2.30;;
51987;SDS011;38003;52.012;4.346;2023-05-02T07:02:24;7.30;;;1.97;;
51987;SDS011;38003;52.012;4.346;2023-05-02T07:04:52;7.73;;;1.70;;
51987;SDS011;38003;52.012;4.346;2023-05-02T07:07:20;7.83;;;2.00;;
51987;SDS011;38003;52.012;4.346;2023-05-02T07:09:50;9.00;;;2.00;;
51987;SDS011;38003;52.012;4.346;2023-05-02T07:12:18;6.77;;;2.43;;
51987;SDS011;38003;52.012;4.346;2023-05-02T07:14:46;10.53;;;1.90;;
51987;SDS011;38003;52.012;4.346;2023-05-02T07:17:14;7.03;;;2.00;;
51987;SDS011;38003;52.012;4.346;2023-05-02T07:19:43;5.30;;;1.73;;
51987;SDS011;38003;52.012;4.346;2023-05-02T07:22:11;11.27;;;2.30;;
51987;SDS011;38003;52.012;4.346;2023-05-02T07:24:39;11.60;;;2.20;;
51987;SDS011;38003;52.012;4.346;2023-05-02T07:27:09;6.80;;;2.00;;
51987;SDS011;38003;52.012;4.346;2023-05-02T07:29:37;8.57;;;2.37;;
51987;SDS011;38003;52.012;4.346;2023-05-02T07:32:07;9.20;;;2.20;;
51987;SDS011;38003;52.012;4.346;2023-05-02T07:34:35;7.60;;;1.90;;
51987;SDS011;38003;52.012;4.346;2023-05-02T07:37:04;6.10;;;1.93;;
51987;SDS011;38003;52.012;4.346;2023-05-02T07:39:32;8.07;;;2.10;;
51987;SDS011;38003;52.012;4.346;2023-05-02T07:42:00;5.30;;;1.90;;
51987;SDS011;38003;52.012;4.346;2023-05-02T07:44:30;11.60;;;2.67;;
51987;SDS011;38003;52.012;4.346;2023-05-02T07:47:00;6.57;;;2.40;;
51987;SDS011;38003;52.012;4.346;2023-05-02T07:49:28;5.67;;;2.00;;
51987;SDS011;38003;52.012;4.346;2023-05-02T07:51:56;8.30;;;2.40;;
51987;SDS011;38003;52.012;4.346;2023-05-02T07:54:24;9.80;;;2.10;;
51987;SDS011;38003;52.012;4.346;2023-05-02T07:56:53;7.10;;;1.77;;
51987;SDS011;38003;52.012;4.346;2023-05-02T07:59:23;6.97;;;1.93;;
51987;SDS011;38003;52.012;4.346;2023-05-02T08:01:52;4.10;;;1.30;;
51987;SDS011;38003;52.012;4.346;2023-05-02T08:04:21;6.00;;;1.60;;
51987;SDS011;38003;52.012;4.346;2023-05-02T08:06:49;3.70;;;1.50;;
51987;SDS011;38003;52.012;4.346;2023-05-02T08:09:18;7.73;;;1.63;;
51987;SDS011;38003;52.012;4.346;2023-05-02T08:11:46;3.97;;;1.70;;
51987;SDS011;38003;52.012;4.346;2023-05-02T08:14:14;6.57;;;1.83;;
51987;SDS011;38003;52.012;4.346;2023-05-02T08:16:43;3.00;;;1.50;;
51987;SDS011;38003;52.012;4.346;2023-05-02T08:19:13;4.90;;;1.80;;
51987;SDS011;38003;52.012;4.346;2023-05-02T08:21:41;5.83;;;1.53;;
51987;SDS011;38003;52.012;4.346;2023-05-02T08:24:10;4.03;;;1.33;;
51987;SDS011;38003;52.012;4.346;2023-05-02T08:26:38;5.07;;;1.63;;
51987;SDS011;38003;52.012;4.346;2023-05-02T08:29:06;4.50;;;1.40;;
51987;SDS011;38003;52.012;4.346;2023-05-02T08:31:36;4.03;;;1.73;;
51987;SDS011;38003;52.012;4.346;2023-05-02T08:34:04;7.33;;;1.70;;
51987;SDS011;38003;52.012;4.346;2023-05-02T08:36:34;4.50;;;1.53;;
51987;SDS011;38003;52.012;4.346;2023-05-02T08:39:03;5.37;;;1.60;;
51987;SDS011;38003;52.012;4.346;2023-05-02T08:41:33;4.73;;;1.50;;
51987;SDS011;38003;52.012;4.346;2023-05-02T08:44:01;6.83;;;1.97;;
51987;SDS011;38003;52.012;4.346;2023-05-02T08:46:30;4.90;;;1.70;;
51987;SDS011;38003;52.012;4.346;2023-05-02T08:48:58;5.77;;;1.80;;
51987;SDS011;38003;52.012;4.346;2023-05-02T08:51:27;5.90;;;1.60;;
51987;SDS011;38003;52.012;4.346;2023-05-02T08:53:59;5.03;;;1.50;;
51987;SDS011;38003;52.012;4.346;2023-05-02T08:56:29;3.63;;;1.40;;
51987;SDS011;38003;52.012;4.346;2023-05-02T08:58:57;3.63;;;1.53;;
51987;SDS011;38003;52.012;4.346;2023-05-02T09:01:27;7.37;;;1.70;;
51987;SDS011;38003;52.012;4.346;2023-05-02T09:03:57;6.33;;;1.80;;
51987;SDS011;38003;52.012;4.346;2023-05-02T09:06:25;6.40;;;1.40;;
51987;SDS011;38003;52.012;4.346;2023-05-02T09:08:59;5.40;;;1.67;;
51987;SDS011;38003;52.012;4.346;2023-05-02T09:11:29;3.23;;;1.20;;
51987;SDS011;38003;52.012;4.346;2023-05-02T09:13:57;7.07;;;1.67;;
51987;SDS011;38003;52.012;4.346;2023-05-02T09:16:29;4.37;;;1.70;;
51987;SDS011;38003;52.012;4.346;2023-05-02T09:19:05;6.23;;;2.00;;
51987;SDS011;38003;52.012;4.346;2023-05-02T09:21:36;3.53;;;1.20;;
51987;SDS011;38003;52.012;4.346;2023-05-02T09:24:13;4.87;;;1.30;;
51987;SDS011;38003;52.012;4.346;2023-05-02T09:26:43;5.60;;;1.80;;
51987;SDS011;38003;52.012;4.346;2023-05-02T09:29:23;5.83;;;2.00;;
51987;SDS011;38003;52.012;4.346;2023-05-02T09:31:51;6.93;;;1.77;;
51987;SDS011;38003;52.012;4.346;2023-05-02T09:34:22;3.33;;;1.53;;
51987;SDS011;38003;52.012;4.346;2023-05-02T09:36:50;5.90;;;1.60;;
51987;SDS011;38003;52.012;4.346;2023-05-02T09:39:20;4.03;;;1.47;;
51987;SDS011;38003;52.012;4.346;2023-05-02T09:41:52;5.73;;;1.93;;
51987;SDS011;38003;52.012;4.346;2023-05-02T09:44:21;7.20;;;2.00;;
51987;SDS011;38003;52.012;4.346;2023-05-02T09:46:51;8.80;;;1.40;;
51987;SDS011;38003;52.012;4.346;2023-05-02T09:49:37;4.17;;;1.53;;
51987;SDS011;38003;52.012;4.346;2023-05-02T09:52:09;2.50;;;1.40;;
51987;SDS011;38003;52.012;4.346;2023-05-02T09:54:37;3.50;;;1.47;;
51987;SDS011;38003;52.012;4.346;2023-05-02T09:57:07;7.20;;;1.70;;
51987;SDS011;38003;52.012;4.346;2023-05-02T09:59:37;6.07;;;1.80;;
51987;SDS011;38003;52.012;4.346;2023-05-02T10:02:06;6.57;;;1.83;;
51987;SDS011;38003;52.012;4.346;2023-05-02T10:04:36;6.50;;;1.83;;
51987;SDS011;38003;52.012;4.346;2023-05-02T10:07:06;5.00;;;1.60;;
51987;SDS011;38003;52.012;4.346;2023-05-02T10:09:35;5.87;;;1.70;;
51987;SDS011;38003;52.012;4.346;2023-05-02T10:12:07;8.77;;;1.90;;
51987;SDS011;38003;52.012;4.346;2023-05-02T10:14:38;4.70;;;1.87;;
51987;SDS011;38003;52.012;4.346;2023-05-02T10:17:10;8.80;;;1.70;;
51987;SDS011;38003;52.012;4.346;2023-05-02T10:19:41;6.87;;;1.60;;
51987;SDS011;38003;52.012;4.346;2023-05-02T10:22:12;6.87;;;1.37;;
51987;SDS011;38003;52.012;4.346;2023-05-02T10:24:40;4.00;;;1.57;;
51987;SDS011;38003;52.012;4.346;2023-05-02T10:27:10;5.43;;;1.80;;
51987;SDS011;38003;52.012;4.346;2023-05-02T10:29:38;6.63;;;2.00;;
51987;SDS011;38003;52.012;4.346;2023-05-02T10:32:07;6.47;;;1.70;;
51987;SDS011;38003;52.012;4.346;2023-05-02T10:34:36;5.13;;;1.73;;
51987;SDS011;38003;52.012;4.346;2023-05-02T10:37:05;6.47;;;1.60;;
51987;SDS011;38003;52.012;4.346;2023-05-02T10:39:34;6.60;;;1.70;;
51987;SDS011;38003;52.012;4.346;2023-05-02T10:42:03;3.83;;;1.57;;
51987;SDS011;38003;52.012;4.346;2023-05-02T10:44:33;5.30;;;1.93;;
51987;SDS011;38003;52.012;4.346;2023-05-02T10:47:16;4.80;;;2.10;;
51987;SDS011;38003;52.012;4.346;2023-05-02T10:49:49;7.43;;;1.93;;
51987;SDS011;38003;52.012;4.346;2023-05-02T10:52:24;4.37;;;1.73;;
51987;SDS011;38003;52.012;4.346;2023-05-02T10:55:03;4.27;;;1.50;;
51987;SDS011;38003;52.012;4.346;2023-05-02T11:00:25;6.33;;;1.97;;
51987;SDS011;38003;52.012;4.346;2023-05-02T11:02:54;4.97;;;1.60;;
51987;SDS011;38003;52.012;4.346;2023-05-02T11:05:23;6.83;;;2.00;;
51987;SDS011;38003;52.012;4.346;2023-05-02T11:10:35;6.57;;;1.77;;
51987;SDS011;38003;52.012;4.346;2023-05-02T11:13:03;3.97;;;2.10;;
51987;SDS011;38003;52.012;4.346;2023-05-02T11:18:20;6.10;;;1.60;;
51987;SDS011;38003;52.012;4.346;2023-05-02T11:20:48;6.20;;;1.63;;
51987;SDS011;38003;52.012;4.346;2023-05-02T11:23:20;3.93;;;1.40;;
51987;SDS011;38003;52.012;4.346;2023-05-02T11:25:51;4.07;;;2.17;;
51987;SDS011;38003;52.012;4.346;2023-05-02T11:28:39;5.40;;;2.43;;
51987;SDS011;38003;52.012;4.346;2023-05-02T11:31:08;5.47;;;1.90;;
51987;SDS011;38003;52.012;4.346;2023-05-02T11:33:38;3.83;;;1.50;;
51987;SDS011;38003;52.012;4.346;2023-05-02T11:36:06;6.03;;;1.80;;
51987;SDS011;38003;52.012;4.346;2023-05-02T11:38:35;4.63;;;1.53;;
51987;SDS011;38003;52.012;4.346;2023-05-02T11:41:04;4.17;;;1.57;;
51987;SDS011;38003;52.012;4.346;2023-05-02T11:43:32;6.13;;;1.70;;
51987;SDS011;38003;52.012;4.346;2023-05-02T11:46:01;4.40;;;1.53;;
51987;SDS011;38003;52.012;4.346;2023-05-02T11:48:30;4.63;;;1.70;;
51987;SDS011;38003;52.012;4.346;2023-05-02T11:51:00;4.10;;;1.50;;
51987;SDS011;38003;52.012;4.346;2023-05-02T11:53:30;3.60;;;1.70;;
51987;SDS011;38003;52.012;4.346;2023-05-02T11:55:59;5.90;;;1.60;;
51987;SDS011;38003;52.012;4.346;2023-05-02T11:58:28;4.70;;;1.57;;
51987;SDS011;38003;52.012;4.346;2023-05-02T12:00:58;3.97;;;1.47;;
51987;SDS011;38003;52.012;4.346;2023-05-02T12:03:27;5.30;;;1.80;;
51987;SDS011;38003;52.012;4.346;2023-05-02T12:05:56;6.20;;;1.87;;
51987;SDS011;38003;52.012;4.346;2023-05-02T12:08:26;5.63;;;1.60;;
51987;SDS011;38003;52.012;4.346;2023-05-02T12:10:55;5.70;;;1.80;;
51987;SDS011;38003;52.012;4.346;2023-05-02T12:13:24;7.53;;;1.50;;
51987;SDS011;38003;52.012;4.346;2023-05-02T12:15:53;4.33;;;1.40;;
51987;SDS011;38003;52.012;4.346;2023-05-02T12:18:22;5.00;;;1.60;;
51987;SDS011;38003;52.012;4.346;2023-05-02T12:20:50;3.87;;;1.40;;
51987;SDS011;38003;52.012;4.346;2023-05-02T12:23:19;6.27;;;1.67;;
51987;SDS011;38003;52.012;4.346;2023-05-02T12:25:49;6.23;;;1.60;;
51987;SDS011;38003;52.012;4.346;2023-05-02T12:28:17;3.67;;;1.40;;
51987;SDS011;38003;52.012;4.346;2023-05-02T12:30:46;5.90;;;1.60;;
51987;SDS011;38003;52.012;4.346;2023-05-02T12:33:14;4.87;;;1.70;;
51987;SDS011;38003;52.012;4.346;2023-05-02T12:35:43;3.73;;;1.63;;
51987;SDS011;38003;52.012;4.346;2023-05-02T12:38:13;5.10;;;1.93;;
51987;SDS011;38003;52.012;4.346;2023-05-02T12:40:50;3.63;;;1.50;;
51987;SDS011;38003;52.012;4.346;2023-05-02T12:43:18;3.10;;;1.40;;
51987;SDS011;38003;52.012;4.346;2023-05-02T12:45:47;5.43;;;1.47;;
51987;SDS011;38003;52.012;4.346;2023-05-02T12:48:20;2.80;;;1.47;;
51987;SDS011;38003;52.012;4.346;2023-05-02T12:50:48;3.33;;;1.50;;
51987;SDS011;38003;52.012;4.346;2023-05-02T12:53:17;4.03;;;1.63;;
51987;SDS011;38003;52.012;4.346;2023-05-02T12:55:45;4.63;;;1.73;;
51987;SDS011;38003;52.012;4.346;2023-05-02T12:58:14;5.73;;;1.60;;
51987;SDS011;38003;52.012;4.346;2023-05-02T13:00:43;5.33;;;1.70;;
51987;SDS011;38003;52.012;4.346;2023-05-02T13:03:13;4.53;;;1.40;;
51987;SDS011;38003;52.012;4.346;2023-05-02T13:05:41;3.67;;;1.33;;
51987;SDS011;38003;52.012;4.346;2023-05-02T13:08:09;5.43;;;1.80;;
51987;SDS011;38003;52.012;4.346;2023-05-02T13:10:38;4.27;;;1.40;;
51987;SDS011;38003;52.012;4.346;2023-05-02T13:13:06;3.33;;;1.30;;
51987;SDS011;38003;52.012;4.346;2023-05-02T13:15:35;3.23;;;1.30;;
51987;SDS011;38003;52.012;4.346;2023-05-02T13:18:04;6.50;;;1.60;;
51987;SDS011;38003;52.012;4.346;2023-05-02T13:20:32;4.87;;;1.47;;
51987;SDS011;38003;52.012;4.346;2023-05-02T13:23:00;5.27;;;1.63;;
51987;SDS011;38003;52.012;4.346;2023-05-02T13:25:28;3.70;;;1.55;;
51987;SDS011;38003;52.012;4.346;2023-05-02T13:27:56;3.20;;;1.60;;
51987;SDS011;38003;52.012;4.346;2023-05-02T13:30:25;5.70;;;1.80;;
51987;SDS011;38003;52.012;4.346;2023-05-02T13:32:54;3.97;;;1.60;;
51987;SDS011;38003;52.012;4.346;2023-05-02T13:35:23;4.60;;;1.63;;
51987;SDS011;38003;52.012;4.346;2023-05-02T13:37:52;4.47;;;1.83;;
51987;SDS011;38003;52.012;4.346;2023-05-02T13:40:20;6.75;;;1.80;;
51987;SDS011;38003;52.012;4.346;2023-05-02T13:42:48;3.03;;;1.33;;
51987;SDS011;38003;52.012;4.346;2023-05-02T13:45:16;4.20;;;1.60;;
51987;SDS011;38003;52.012;4.346;2023-05-02T13:47:44;3.55;;;1.50;;
51987;SDS011;38003;52.012;4.346;2023-05-02T13:50:14;4.30;;;1.90;;
51987;SDS011;38003;52.012;4.346;2023-05-02T13:52:42;4.30;;;1.73;;
51987;SDS011;38003;52.012;4.346;2023-05-02T13:55:14;3.33;;;1.65;;
51987;SDS011;38003;52.012;4.346;2023-05-02T13:57:42;3.50;;;1.67;;
51987;SDS011;38003;52.012;4.346;2023-05-02T14:00:11;5.00;;;1.77;;
51987;SDS011;38003;52.012;4.346;2023-05-02T14:02:39;5.30;;;2.00;;
51987;SDS011;38003;52.012;4.346;2023-05-02T14:05:07;5.13;;;1.80;;
51987;SDS011;38003;52.012;4.346;2023-05-02T14:07:37;4.88;;;1.77;;
51987;SDS011;38003;52.012;4.346;2023-05-02T14:10:06;5.68;;;2.03;;
51987;SDS011;38003;52.012;4.346;2023-05-02T14:12:34;4.75;;;1.90;;
51987;SDS011;38003;52.012;4.346;2023-05-02T14:15:02;7.90;;;1.93;;
51987;SDS011;38003;52.012;4.346;2023-05-02T14:17:31;6.43;;;1.70;;
51987;SDS011;38003;52.012;4.346;2023-05-02T14:19:59;3.33;;;1.88;;
51987;SDS011;38003;52.012;4.346;2023-05-02T14:22:28;3.83;;;1.58;;
51987;SDS011;38003;52.012;4.346;2023-05-02T14:24:57;5.20;;;1.90;;
51987;SDS011;38003;52.012;4.346;2023-05-02T14:27:25;6.40;;;2.00;;
51987;SDS011;38003;52.012;4.346;2023-05-02T14:29:53;3.00;;;1.80;;
51987;SDS011;38003;52.012;4.346;2023-05-02T14:32:22;5.22;;;1.77;;
51987;SDS011;38003;52.012;4.346;2023-05-02T14:34:50;5.18;;;1.60;;
51987;SDS011;38003;52.012;4.346;2023-05-02T14:37:18;5.78;;;1.98;;
51987;SDS011;38003;52.012;4.346;2023-05-02T14:39:47;6.97;;;2.00;;
51987;SDS011;38003;52.012;4.346;2023-05-02T14:42:21;6.03;;;1.80;;
51987;SDS011;38003;52.012;4.346;2023-05-02T14:44:49;4.83;;;1.70;;
51987;SDS011;38003;52.012;4.346;2023-05-02T14:47:18;3.78;;;1.67;;
51987;SDS011;38003;52.012;4.346;2023-05-02T14:49:47;6.63;;;2.10;;
51987;SDS011;38003;52.012;4.346;2023-05-02T14:52:15;7.22;;;1.60;;
51987;SDS011;38003;52.012;4.346;2023-05-02T14:54:44;6.95;;;2.05;;
51987;SDS011;38003;52.012;4.346;2023-05-02T14:57:12;5.60;;;1.52;;
51987;SDS011;38003;52.012;4.346;2023-05-02T14:59:42;6.37;;;1.90;;
51987;SDS011;38003;52.012;4.346;2023-05-02T15:02:10;5.63;;;2.23;;
51987;SDS011;38003;52.012;4.346;2023-05-02T15:04:38;5.37;;;1.80;;
51987;SDS011;38003;52.012;4.346;2023-05-02T15:07:07;7.37;;;2.00;;